sensor_id;sensor_type;location;lat;lon;timestamp;P1;durP1;ratioP1;P2;durP2;ratioP2
42084;SDS011;27746;52.228;20.890;2022-09-29T00:01:38;17.15;;;10.80;;
42084;SDS011;27746;52.228;20.890;2022-09-29T00:04:05;18.23;;;9.85;;
42084;SDS011;27746;52.228;20.890;2022-09-29T00:06:33;16.60;;;10.15;;
42084;SDS011;27746;52.228;20.890;2022-09-29T00:09:00;14.10;;;9.70;;
42084;SDS011;27746;52.228;20.890;2022-09-29T00:11:27;12.93;;;8.52;;
42084;SDS011;27746;52.228;20.890;2022-09-29T00:13:55;14.38;;;9.32;;
42084;SDS011;27746;52.228;20.890;2022-09-29T00:16:21;16.67;;;10.30;;
42084;SDS011;27746;52.228;20.890;2022-09-29T00:18:48;14.40;;;8.27;;
42084;SDS011;27746;52.228;20.890;2022-09-29T00:21:16;14.55;;;8.88;;
42084;SDS011;27746;52.228;20.890;2022-09-29T00:23:44;15.57;;;9.63;;
42084;SDS011;27746;52.228;20.890;2022-09-29T00:26:12;14.60;;;9.07;;
42084;SDS011;27746;52.228;20.890;2022-09-29T00:28:41;14.35;;;9.07;;
42084;SDS011;27746;52.228;20.890;2022-09-29T00:31:12;13.05;;;9.63;;
42084;SDS011;27746;52.228;20.890;2022-09-29T00:33:39;14.25;;;8.70;;
42084;SDS011;27746;52.228;20.890;2022-09-29T00:36:08;13.77;;;9.52;;
42084;SDS011;27746;52.228;20.890;2022-09-29T00:38:37;15.52;;;9.90;;
42084;SDS011;27746;52.228;20.890;2022-09-29T00:41:04;15.95;;;9.55;;
42084;SDS011;27746;52.228;20.890;2022-09-29T00:43:52;14.98;;;10.43;;
42084;SDS011;27746;52.228;20.890;2022-09-29T00:46:24;15.57;;;9.00;;
42084;SDS011;27746;52.228;20.890;2022-09-29T00:49:02;20.67;;;10.90;;
42084;SDS011;27746;52.228;20.890;2022-09-29T00:51:33;15.77;;;10.35;;
42084;SDS011;27746;52.228;20.890;2022-09-29T00:54:02;16.90;;;10.15;;
42084;SDS011;27746;52.228;20.890;2022-09-29T00:56:31;14.68;;;9.98;;
42084;SDS011;27746;52.228;20.890;2022-09-29T00:58:59;13.23;;;9.30;;
42084;SDS011;27746;52.228;20.890;2022-09-29T01:01:31;16.00;;;10.00;;
42084;SDS011;27746;52.228;20.890;2022-09-29T01:04:00;15.57;;;10.38;;
42084;SDS011;27746;52.228;20.890;2022-09-29T01:06:30;15.50;;;10.55;;
42084;SDS011;27746;52.228;20.890;2022-09-29T01:09:01;16.25;;;10.70;;
42084;SDS011;27746;52.228;20.890;2022-09-29T01:11:29;17.83;;;11.20;;
42084;SDS011;27746;52.228;20.890;2022-09-29T01:13:56;16.10;;;10.30;;
42084;SDS011;27746;52.228;20.890;2022-09-29T01:16:27;18.08;;;10.73;;
42084;SDS011;27746;52.228;20.890;2022-09-29T01:18:56;17.55;;;11.35;;
42084;SDS011;27746;52.228;20.890;2022-09-29T01:21:27;13.75;;;10.77;;
42084;SDS011;27746;52.228;20.890;2022-09-29T01:27:04;18.55;;;11.05;;
42084;SDS011;27746;52.228;20.890;2022-09-29T01:29:49;18.30;;;12.00;;
42084;SDS011;27746;52.228;20.890;2022-09-29T01:32:30;16.23;;;11.50;;
42084;SDS011;27746;52.228;20.890;2022-09-29T01:35:13;19.63;;;12.60;;
42084;SDS011;27746;52.228;20.890;2022-09-29T01:37:50;19.30;;;10.90;;
42084;SDS011;27746;52.228;20.890;2022-09-29T01:40:28;17.00;;;12.02;;
42084;SDS011;27746;52.228;20.890;2022-09-29T01:43:02;19.83;;;11.25;;
42084;SDS011;27746;52.228;20.890;2022-09-29T01:45:34;19.02;;;11.18;;
42084;SDS011;27746;52.228;20.890;2022-09-29T01:48:05;20.95;;;11.75;;
42084;SDS011;27746;52.228;20.890;2022-09-29T01:50:36;20.67;;;12.77;;
42084;SDS011;27746;52.228;20.890;2022-09-29T01:53:07;21.10;;;12.73;;
42084;SDS011;27746;52.228;20.890;2022-09-29T01:55:40;19.13;;;12.23;;
42084;SDS011;27746;52.228;20.890;2022-09-29T01:58:12;21.30;;;13.70;;
42084;SDS011;27746;52.228;20.890;2022-09-29T02:00:45;22.25;;;13.10;;
42084;SDS011;27746;52.228;20.890;2022-09-29T02:03:17;23.75;;;12.18;;
42084;SDS011;27746;52.228;20.890;2022-09-29T02:08:17;17.50;;;11.60;;
42084;SDS011;27746;52.228;20.890;2022-09-29T02:10:49;18.00;;;11.00;;
42084;SDS011;27746;52.228;20.890;2022-09-29T02:13:21;17.83;;;11.40;;
42084;SDS011;27746;52.228;20.890;2022-09-29T02:15:50;18.92;;;11.45;;
42084;SDS011;27746;52.228;20.890;2022-09-29T02:18:22;15.02;;;10.02;;
42084;SDS011;27746;52.228;20.890;2022-09-29T02:20:51;15.82;;;9.82;;
42084;SDS011;27746;52.228;20.890;2022-09-29T02:23:18;14.07;;;9.30;;
42084;SDS011;27746;52.228;20.890;2022-09-29T02:25:45;17.33;;;10.60;;
42084;SDS011;27746;52.228;20.890;2022-09-29T02:28:13;19.80;;;11.48;;
42084;SDS011;27746;52.228;20.890;2022-09-29T02:30:41;18.05;;;12.43;;
42084;SDS011;27746;52.228;20.890;2022-09-29T02:33:16;21.55;;;12.43;;
42084;SDS011;27746;52.228;20.890;2022-09-29T02:35:58;19.65;;;11.75;;
42084;SDS011;27746;52.228;20.890;2022-09-29T02:38:36;18.10;;;12.10;;
42084;SDS011;27746;52.228;20.890;2022-09-29T02:41:12;17.42;;;11.50;;
42084;SDS011;27746;52.228;20.890;2022-09-29T02:44:08;18.40;;;12.15;;
42084;SDS011;27746;52.228;20.890;2022-09-29T02:46:49;18.35;;;12.07;;
42084;SDS011;27746;52.228;20.890;2022-09-29T02:49:31;16.98;;;11.50;;
42084;SDS011;27746;52.228;20.890;2022-09-29T02:52:05;17.90;;;11.60;;
42084;SDS011;27746;52.228;20.890;2022-09-29T02:54:46;15.85;;;10.68;;
42084;SDS011;27746;52.228;20.890;2022-09-29T02:57:23;16.58;;;11.73;;
42084;SDS011;27746;52.228;20.890;2022-09-29T02:59:56;15.32;;;11.15;;
42084;SDS011;27746;52.228;20.890;2022-09-29T03:02:31;17.55;;;10.95;;
42084;SDS011;27746;52.228;20.890;2022-09-29T03:04:58;15.23;;;11.43;;
42084;SDS011;27746;52.228;20.890;2022-09-29T03:07:26;15.32;;;11.52;;
42084;SDS011;27746;52.228;20.890;2022-09-29T03:09:53;16.92;;;11.38;;
42084;SDS011;27746;52.228;20.890;2022-09-29T03:12:19;16.85;;;11.40;;
42084;SDS011;27746;52.228;20.890;2022-09-29T03:14:46;15.30;;;11.23;;
42084;SDS011;27746;52.228;20.890;2022-09-29T03:17:13;15.45;;;10.98;;
42084;SDS011;27746;52.228;20.890;2022-09-29T03:19:39;15.60;;;10.88;;
42084;SDS011;27746;52.228;20.890;2022-09-29T03:22:06;14.93;;;10.55;;
42084;SDS011;27746;52.228;20.890;2022-09-29T03:24:35;18.63;;;11.07;;
42084;SDS011;27746;52.228;20.890;2022-09-29T03:27:01;18.33;;;11.52;;
42084;SDS011;27746;52.228;20.890;2022-09-29T03:29:28;18.00;;;10.82;;
42084;SDS011;27746;52.228;20.890;2022-09-29T03:31:55;17.20;;;11.73;;
42084;SDS011;27746;52.228;20.890;2022-09-29T03:34:23;22.15;;;12.68;;
42084;SDS011;27746;52.228;20.890;2022-09-29T03:36:50;32.85;;;12.05;;
42084;SDS011;27746;52.228;20.890;2022-09-29T03:39:17;21.25;;;12.85;;
42084;SDS011;27746;52.228;20.890;2022-09-29T03:41:46;18.27;;;12.77;;
42084;SDS011;27746;52.228;20.890;2022-09-29T03:44:13;18.40;;;12.00;;
42084;SDS011;27746;52.228;20.890;2022-09-29T03:46:39;16.48;;;12.38;;
42084;SDS011;27746;52.228;20.890;2022-09-29T03:49:08;20.25;;;13.38;;
42084;SDS011;27746;52.228;20.890;2022-09-29T03:51:35;19.40;;;11.98;;
42084;SDS011;27746;52.228;20.890;2022-09-29T03:54:02;19.85;;;12.35;;
42084;SDS011;27746;52.228;20.890;2022-09-29T03:56:29;21.52;;;14.10;;
42084;SDS011;27746;52.228;20.890;2022-09-29T03:58:57;19.63;;;12.02;;
42084;SDS011;27746;52.228;20.890;2022-09-29T04:01:24;20.88;;;13.75;;
42084;SDS011;27746;52.228;20.890;2022-09-29T04:03:51;19.55;;;12.80;;
42084;SDS011;27746;52.228;20.890;2022-09-29T04:06:18;17.88;;;12.02;;
42084;SDS011;27746;52.228;20.890;2022-09-29T04:08:45;18.70;;;13.07;;
42084;SDS011;27746;52.228;20.890;2022-09-29T04:11:13;20.98;;;13.10;;
42084;SDS011;27746;52.228;20.890;2022-09-29T04:13:40;20.33;;;12.43;;
42084;SDS011;27746;52.228;20.890;2022-09-29T04:16:08;19.10;;;13.15;;
42084;SDS011;27746;52.228;20.890;2022-09-29T04:18:35;20.63;;;12.80;;
42084;SDS011;27746;52.228;20.890;2022-09-29T04:21:04;18.63;;;12.73;;
42084;SDS011;27746;52.228;20.890;2022-09-29T04:23:31;18.77;;;12.93;;
42084;SDS011;27746;52.228;20.890;2022-09-29T04:25:58;22.15;;;12.75;;
42084;SDS011;27746;52.228;20.890;2022-09-29T04:28:26;18.73;;;12.57;;
42084;SDS011;27746;52.228;20.890;2022-09-29T04:30:53;20.95;;;13.15;;
42084;SDS011;27746;52.228;20.890;2022-09-29T04:33:21;21.13;;;13.05;;
42084;SDS011;27746;52.228;20.890;2022-09-29T04:35:48;21.45;;;13.63;;
42084;SDS011;27746;52.228;20.890;2022-09-29T04:38:15;20.67;;;13.30;;
42084;SDS011;27746;52.228;20.890;2022-09-29T04:40:42;21.70;;;13.52;;
42084;SDS011;27746;52.228;20.890;2022-09-29T04:43:08;22.13;;;14.25;;
42084;SDS011;27746;52.228;20.890;2022-09-29T04:45:35;21.05;;;12.88;;
42084;SDS011;27746;52.228;20.890;2022-09-29T04:48:02;23.20;;;13.45;;
42084;SDS011;27746;52.228;20.890;2022-09-29T04:50:30;23.70;;;13.68;;
42084;SDS011;27746;52.228;20.890;2022-09-29T04:52:57;22.08;;;13.52;;
42084;SDS011;27746;52.228;20.890;2022-09-29T04:55:24;20.60;;;13.75;;
42084;SDS011;27746;52.228;20.890;2022-09-29T04:57:51;20.00;;;13.45;;
42084;SDS011;27746;52.228;20.890;2022-09-29T05:00:18;21.77;;;13.27;;
42084;SDS011;27746;52.228;20.890;2022-09-29T05:02:45;21.83;;;13.48;;
42084;SDS011;27746;52.228;20.890;2022-09-29T05:05:12;21.58;;;14.18;;
42084;SDS011;27746;52.228;20.890;2022-09-29T05:07:40;25.08;;;14.02;;
42084;SDS011;27746;52.228;20.890;2022-09-29T05:10:08;22.98;;;13.80;;
42084;SDS011;27746;52.228;20.890;2022-09-29T05:12:35;20.75;;;13.68;;
42084;SDS011;27746;52.228;20.890;2022-09-29T05:15:02;21.25;;;13.30;;
42084;SDS011;27746;52.228;20.890;2022-09-29T05:17:30;21.92;;;12.93;;
42084;SDS011;27746;52.228;20.890;2022-09-29T05:19:57;24.55;;;13.70;;
42084;SDS011;27746;52.228;20.890;2022-09-29T05:22:23;24.25;;;13.60;;
42084;SDS011;27746;52.228;20.890;2022-09-29T05:24:51;23.20;;;13.40;;
42084;SDS011;27746;52.228;20.890;2022-09-29T05:27:18;25.02;;;14.48;;
42084;SDS011;27746;52.228;20.890;2022-09-29T05:29:46;24.30;;;13.75;;
42084;SDS011;27746;52.228;20.890;2022-09-29T05:32:13;21.35;;;12.52;;
42084;SDS011;27746;52.228;20.890;2022-09-29T05:34:40;24.13;;;12.88;;
42084;SDS011;27746;52.228;20.890;2022-09-29T05:37:06;24.77;;;14.18;;
42084;SDS011;27746;52.228;20.890;2022-09-29T05:39:33;20.77;;;13.60;;
42084;SDS011;27746;52.228;20.890;2022-09-29T05:42:02;23.20;;;13.63;;
42084;SDS011;27746;52.228;20.890;2022-09-29T05:44:30;24.63;;;14.93;;
42084;SDS011;27746;52.228;20.890;2022-09-29T05:46:57;23.50;;;13.95;;
42084;SDS011;27746;52.228;20.890;2022-09-29T05:49:24;21.92;;;13.68;;
42084;SDS011;27746;52.228;20.890;2022-09-29T05:51:51;21.65;;;12.57;;
42084;SDS011;27746;52.228;20.890;2022-09-29T05:54:18;24.17;;;14.00;;
42084;SDS011;27746;52.228;20.890;2022-09-29T05:56:45;22.70;;;13.20;;
42084;SDS011;27746;52.228;20.890;2022-09-29T05:59:13;19.73;;;13.07;;
42084;SDS011;27746;52.228;20.890;2022-09-29T06:01:40;21.55;;;12.73;;
42084;SDS011;27746;52.228;20.890;2022-09-29T06:04:06;22.63;;;13.27;;
42084;SDS011;27746;52.228;20.890;2022-09-29T06:06:33;24.75;;;13.30;;
42084;SDS011;27746;52.228;20.890;2022-09-29T06:09:04;23.63;;;12.80;;
42084;SDS011;27746;52.228;20.890;2022-09-29T06:11:31;22.88;;;12.32;;
42084;SDS011;27746;52.228;20.890;2022-09-29T06:13:58;24.77;;;11.93;;
42084;SDS011;27746;52.228;20.890;2022-09-29T06:16:28;18.42;;;12.18;;
42084;SDS011;27746;52.228;20.890;2022-09-29T06:18:57;19.55;;;13.20;;
42084;SDS011;27746;52.228;20.890;2022-09-29T06:21:25;21.33;;;13.52;;
42084;SDS011;27746;52.228;20.890;2022-09-29T06:23:53;21.88;;;13.25;;
42084;SDS011;27746;52.228;20.890;2022-09-29T06:26:21;21.52;;;12.45;;
42084;SDS011;27746;52.228;20.890;2022-09-29T06:28:49;22.23;;;14.98;;
42084;SDS011;27746;52.228;20.890;2022-09-29T06:31:17;21.17;;;13.57;;
42084;SDS011;27746;52.228;20.890;2022-09-29T06:33:46;21.30;;;13.48;;
42084;SDS011;27746;52.228;20.890;2022-09-29T06:36:14;19.35;;;11.75;;
42084;SDS011;27746;52.228;20.890;2022-09-29T06:39:00;19.13;;;11.55;;
42084;SDS011;27746;52.228;20.890;2022-09-29T06:41:26;20.33;;;12.35;;
42084;SDS011;27746;52.228;20.890;2022-09-29T06:43:54;20.00;;;12.50;;
42084;SDS011;27746;52.228;20.890;2022-09-29T06:46:21;20.80;;;13.45;;
42084;SDS011;27746;52.228;20.890;2022-09-29T06:48:49;19.17;;;12.05;;
42084;SDS011;27746;52.228;20.890;2022-09-29T06:51:15;17.67;;;11.60;;
42084;SDS011;27746;52.228;20.890;2022-09-29T06:53:42;19.77;;;12.82;;
42084;SDS011;27746;52.228;20.890;2022-09-29T06:56:10;18.45;;;11.60;;
42084;SDS011;27746;52.228;20.890;2022-09-29T06:58:37;16.92;;;10.25;;
42084;SDS011;27746;52.228;20.890;2022-09-29T07:01:04;16.60;;;11.43;;
42084;SDS011;27746;52.228;20.890;2022-09-29T07:03:33;16.35;;;10.98;;
42084;SDS011;27746;52.228;20.890;2022-09-29T07:06:02;16.60;;;11.27;;
42084;SDS011;27746;52.228;20.890;2022-09-29T07:08:30;19.00;;;11.00;;
42084;SDS011;27746;52.228;20.890;2022-09-29T07:10:59;15.18;;;10.43;;
42084;SDS011;27746;52.228;20.890;2022-09-29T07:13:27;16.10;;;9.98;;
42084;SDS011;27746;52.228;20.890;2022-09-29T07:15:53;17.40;;;11.23;;
42084;SDS011;27746;52.228;20.890;2022-09-29T07:18:20;18.33;;;11.00;;
42084;SDS011;27746;52.228;20.890;2022-09-29T07:20:48;16.25;;;10.00;;
42084;SDS011;27746;52.228;20.890;2022-09-29T07:23:16;14.90;;;10.13;;
42084;SDS011;27746;52.228;20.890;2022-09-29T07:25:44;15.77;;;10.40;;
42084;SDS011;27746;52.228;20.890;2022-09-29T07:28:11;18.48;;;10.73;;
42084;SDS011;27746;52.228;20.890;2022-09-29T07:30:38;17.08;;;10.43;;
42084;SDS011;27746;52.228;20.890;2022-09-29T07:33:04;15.95;;;10.55;;
42084;SDS011;27746;52.228;20.890;2022-09-29T07:35:31;16.88;;;11.25;;
42084;SDS011;27746;52.228;20.890;2022-09-29T07:37:58;18.20;;;11.05;;
42084;SDS011;27746;52.228;20.890;2022-09-29T07:40:26;17.13;;;10.52;;
42084;SDS011;27746;52.228;20.890;2022-09-29T07:42:53;14.20;;;9.68;;
42084;SDS011;27746;52.228;20.890;2022-09-29T07:45:19;16.27;;;10.32;;
42084;SDS011;27746;52.228;20.890;2022-09-29T07:47:46;17.10;;;10.20;;
42084;SDS011;27746;52.228;20.890;2022-09-29T07:50:13;17.17;;;11.18;;
42084;SDS011;27746;52.228;20.890;2022-09-29T07:52:40;16.95;;;10.13;;
42084;SDS011;27746;52.228;20.890;2022-09-29T07:55:08;15.43;;;10.23;;
42084;SDS011;27746;52.228;20.890;2022-09-29T07:57:36;14.00;;;9.45;;
42084;SDS011;27746;52.228;20.890;2022-09-29T08:00:03;14.77;;;9.82;;
42084;SDS011;27746;52.228;20.890;2022-09-29T08:02:30;15.00;;;10.85;;
42084;SDS011;27746;52.228;20.890;2022-09-29T08:04:57;15.80;;;11.55;;
42084;SDS011;27746;52.228;20.890;2022-09-29T08:07:25;14.55;;;9.52;;
42084;SDS011;27746;52.228;20.890;2022-09-29T08:09:52;15.15;;;10.40;;
42084;SDS011;27746;52.228;20.890;2022-09-29T08:12:18;14.13;;;9.95;;
42084;SDS011;27746;52.228;20.890;2022-09-29T08:14:46;14.90;;;9.93;;
42084;SDS011;27746;52.228;20.890;2022-09-29T08:17:13;12.10;;;9.18;;
42084;SDS011;27746;52.228;20.890;2022-09-29T08:19:40;13.93;;;9.90;;
42084;SDS011;27746;52.228;20.890;2022-09-29T08:22:07;13.43;;;9.68;;
42084;SDS011;27746;52.228;20.890;2022-09-29T08:24:34;13.65;;;9.57;;
42084;SDS011;27746;52.228;20.890;2022-09-29T08:27:01;14.27;;;9.60;;
42084;SDS011;27746;52.228;20.890;2022-09-29T08:29:31;14.65;;;9.90;;
42084;SDS011;27746;52.228;20.890;2022-09-29T08:31:59;13.10;;;9.02;;
42084;SDS011;27746;52.228;20.890;2022-09-29T08:34:26;13.18;;;8.98;;
42084;SDS011;27746;52.228;20.890;2022-09-29T08:36:53;12.15;;;9.45;;
42084;SDS011;27746;52.228;20.890;2022-09-29T08:39:20;12.43;;;8.85;;
42084;SDS011;27746;52.228;20.890;2022-09-29T08:41:51;13.35;;;9.00;;
42084;SDS011;27746;52.228;20.890;2022-09-29T08:44:21;13.27;;;8.90;;
42084;SDS011;27746;52.228;20.890;2022-09-29T08:46:55;13.90;;;9.10;;
42084;SDS011;27746;52.228;20.890;2022-09-29T08:49:26;12.65;;;7.90;;
42084;SDS011;27746;52.228;20.890;2022-09-29T08:52:01;11.65;;;7.93;;
42084;SDS011;27746;52.228;20.890;2022-09-29T08:54:32;12.25;;;8.45;;
42084;SDS011;27746;52.228;20.890;2022-09-29T08:57:01;11.25;;;8.40;;
42084;SDS011;27746;52.228;20.890;2022-09-29T08:59:30;12.60;;;8.10;;
42084;SDS011;27746;52.228;20.890;2022-09-29T09:02:01;11.13;;;7.13;;
42084;SDS011;27746;52.228;20.890;2022-09-29T09:07:29;10.02;;;7.38;;
42084;SDS011;27746;52.228;20.890;2022-09-29T09:10:09;11.73;;;8.40;;
42084;SDS011;27746;52.228;20.890;2022-09-29T09:13:01;9.55;;;6.95;;
42084;SDS011;27746;52.228;20.890;2022-09-29T09:15:51;10.63;;;7.38;;
42084;SDS011;27746;52.228;20.890;2022-09-29T09:18:33;9.77;;;7.30;;
42084;SDS011;27746;52.228;20.890;2022-09-29T09:21:18;12.48;;;8.90;;
42084;SDS011;27746;52.228;20.890;2022-09-29T09:23:52;10.32;;;7.70;;
42084;SDS011;27746;52.228;20.890;2022-09-29T09:26:22;10.48;;;7.78;;
42084;SDS011;27746;52.228;20.890;2022-09-29T09:28:57;10.27;;;7.75;;
42084;SDS011;27746;52.228;20.890;2022-09-29T09:31:30;10.93;;;7.90;;
42084;SDS011;27746;52.228;20.890;2022-09-29T09:34:05;11.00;;;8.23;;
42084;SDS011;27746;52.228;20.890;2022-09-29T09:36:40;10.15;;;7.88;;
42084;SDS011;27746;52.228;20.890;2022-09-29T09:39:10;12.00;;;8.38;;
42084;SDS011;27746;52.228;20.890;2022-09-29T09:41:40;12.05;;;8.18;;
42084;SDS011;27746;52.228;20.890;2022-09-29T09:44:11;10.88;;;8.15;;
42084;SDS011;27746;52.228;20.890;2022-09-29T09:46:42;12.00;;;8.10;;
42084;SDS011;27746;52.228;20.890;2022-09-29T09:49:15;12.45;;;8.57;;
42084;SDS011;27746;52.228;20.890;2022-09-29T09:51:48;10.82;;;7.72;;
42084;SDS011;27746;52.228;20.890;2022-09-29T09:54:28;10.68;;;8.18;;
42084;SDS011;27746;52.228;20.890;2022-09-29T09:57:02;9.68;;;7.53;;
42084;SDS011;27746;52.228;20.890;2022-09-29T09:59:51;11.85;;;7.40;;
42084;SDS011;27746;52.228;20.890;2022-09-29T10:02:27;10.60;;;8.13;;
42084;SDS011;27746;52.228;20.890;2022-09-29T10:04:55;10.40;;;7.28;;
42084;SDS011;27746;52.228;20.890;2022-09-29T10:07:24;11.25;;;8.52;;
42084;SDS011;27746;52.228;20.890;2022-09-29T10:09:55;10.90;;;8.67;;
42084;SDS011;27746;52.228;20.890;2022-09-29T10:12:23;11.23;;;7.90;;
42084;SDS011;27746;52.228;20.890;2022-09-29T10:14:51;10.48;;;8.23;;
42084;SDS011;27746;52.228;20.890;2022-09-29T10:17:22;14.23;;;9.05;;
42084;SDS011;27746;52.228;20.890;2022-09-29T10:19:56;13.43;;;8.60;;
42084;SDS011;27746;52.228;20.890;2022-09-29T10:22:26;12.68;;;8.55;;
42084;SDS011;27746;52.228;20.890;2022-09-29T10:25:04;12.85;;;9.32;;
42084;SDS011;27746;52.228;20.890;2022-09-29T10:27:33;13.00;;;8.85;;
42084;SDS011;27746;52.228;20.890;2022-09-29T10:30:01;12.27;;;8.70;;
42084;SDS011;27746;52.228;20.890;2022-09-29T10:32:29;12.63;;;8.93;;
42084;SDS011;27746;52.228;20.890;2022-09-29T10:35:05;15.60;;;9.33;;
42084;SDS011;27746;52.228;20.890;2022-09-29T10:37:45;13.48;;;9.27;;
42084;SDS011;27746;52.228;20.890;2022-09-29T10:40:15;12.18;;;9.10;;
42084;SDS011;27746;52.228;20.890;2022-09-29T10:42:45;12.05;;;8.98;;
42084;SDS011;27746;52.228;20.890;2022-09-29T10:45:16;13.02;;;8.35;;
42084;SDS011;27746;52.228;20.890;2022-09-29T10:47:46;13.38;;;9.50;;
42084;SDS011;27746;52.228;20.890;2022-09-29T10:50:15;13.85;;;9.73;;
42084;SDS011;27746;52.228;20.890;2022-09-29T10:52:46;15.10;;;10.82;;
42084;SDS011;27746;52.228;20.890;2022-09-29T10:55:17;13.30;;;10.02;;
42084;SDS011;27746;52.228;20.890;2022-09-29T10:57:46;14.35;;;10.52;;
42084;SDS011;27746;52.228;20.890;2022-09-29T11:00:27;13.68;;;9.90;;
42084;SDS011;27746;52.228;20.890;2022-09-29T11:02:59;15.38;;;10.73;;
42084;SDS011;27746;52.228;20.890;2022-09-29T11:05:31;13.80;;;9.32;;
42084;SDS011;27746;52.228;20.890;2022-09-29T11:08:00;15.43;;;9.07;;
42084;SDS011;27746;52.228;20.890;2022-09-29T11:10:28;13.13;;;9.35;;
42084;SDS011;27746;52.228;20.890;2022-09-29T11:13:02;12.75;;;9.85;;
42084;SDS011;27746;52.228;20.890;2022-09-29T11:16:02;14.02;;;10.48;;
42084;SDS011;27746;52.228;20.890;2022-09-29T11:18:31;15.38;;;10.18;;
42084;SDS011;27746;52.228;20.890;2022-09-29T11:21:03;12.32;;;9.38;;
42084;SDS011;27746;52.228;20.890;2022-09-29T11:23:43;11.55;;;8.90;;
42084;SDS011;27746;52.228;20.890;2022-09-29T11:26:20;11.98;;;9.10;;
42084;SDS011;27746;52.228;20.890;2022-09-29T11:28:57;13.13;;;10.38;;
42084;SDS011;27746;52.228;20.890;2022-09-29T11:37:14;16.08;;;11.50;;
42084;SDS011;27746;52.228;20.890;2022-09-29T11:39:54;14.63;;;10.60;;
42084;SDS011;27746;52.228;20.890;2022-09-29T11:42:31;16.13;;;10.50;;
42084;SDS011;27746;52.228;20.890;2022-09-29T11:45:15;13.98;;;9.70;;
42084;SDS011;27746;52.228;20.890;2022-09-29T11:48:05;16.67;;;11.60;;
42084;SDS011;27746;52.228;20.890;2022-09-29T11:50:53;14.23;;;10.35;;
42084;SDS011;27746;52.228;20.890;2022-09-29T11:53:27;12.95;;;10.00;;
42084;SDS011;27746;52.228;20.890;2022-09-29T11:56:13;11.50;;;8.75;;
42084;SDS011;27746;52.228;20.890;2022-09-29T11:59:00;11.73;;;8.98;;
42084;SDS011;27746;52.228;20.890;2022-09-29T12:01:51;11.48;;;9.40;;
42084;SDS011;27746;52.228;20.890;2022-09-29T12:04:29;10.85;;;9.10;;
42084;SDS011;27746;52.228;20.890;2022-09-29T12:07:06;12.00;;;9.65;;
42084;SDS011;27746;52.228;20.890;2022-09-29T12:09:55;11.18;;;9.05;;
42084;SDS011;27746;52.228;20.890;2022-09-29T12:12:32;11.43;;;9.00;;
42084;SDS011;27746;52.228;20.890;2022-09-29T12:15:07;11.85;;;8.65;;
42084;SDS011;27746;52.228;20.890;2022-09-29T12:17:53;12.73;;;9.02;;
42084;SDS011;27746;52.228;20.890;2022-09-29T12:20:25;11.95;;;9.07;;
42084;SDS011;27746;52.228;20.890;2022-09-29T12:22:55;12.00;;;8.80;;
42084;SDS011;27746;52.228;20.890;2022-09-29T12:25:25;13.05;;;9.82;;
42084;SDS011;27746;52.228;20.890;2022-09-29T12:27:59;14.25;;;10.88;;
42084;SDS011;27746;52.228;20.890;2022-09-29T12:30:29;11.80;;;9.45;;
42084;SDS011;27746;52.228;20.890;2022-09-29T12:33:03;12.10;;;9.38;;
42084;SDS011;27746;52.228;20.890;2022-09-29T12:35:34;13.45;;;9.73;;
42084;SDS011;27746;52.228;20.890;2022-09-29T12:38:07;11.23;;;9.13;;
42084;SDS011;27746;52.228;20.890;2022-09-29T12:40:41;11.48;;;9.60;;
42084;SDS011;27746;52.228;20.890;2022-09-29T12:43:16;13.95;;;9.73;;
42084;SDS011;27746;52.228;20.890;2022-09-29T12:45:49;12.63;;;9.35;;
42084;SDS011;27746;52.228;20.890;2022-09-29T12:48:28;11.68;;;8.00;;
42084;SDS011;27746;52.228;20.890;2022-09-29T12:51:07;13.77;;;9.55;;
42084;SDS011;27746;52.228;20.890;2022-09-29T12:53:38;12.75;;;9.52;;
42084;SDS011;27746;52.228;20.890;2022-09-29T12:56:19;14.55;;;10.30;;
42084;SDS011;27746;52.228;20.890;2022-09-29T12:58:51;14.65;;;9.38;;
42084;SDS011;27746;52.228;20.890;2022-09-29T13:01:21;12.27;;;9.13;;
42084;SDS011;27746;52.228;20.890;2022-09-29T13:03:55;13.55;;;10.48;;
42084;SDS011;27746;52.228;20.890;2022-09-29T13:06:48;14.82;;;10.65;;
42084;SDS011;27746;52.228;20.890;2022-09-29T13:09:33;12.90;;;9.77;;
42084;SDS011;27746;52.228;20.890;2022-09-29T13:12:23;12.77;;;10.00;;
42084;SDS011;27746;52.228;20.890;2022-09-29T13:15:26;12.93;;;10.10;;
42084;SDS011;27746;52.228;20.890;2022-09-29T13:18:06;11.88;;;9.70;;
42084;SDS011;27746;52.228;20.890;2022-09-29T13:20:55;14.70;;;9.88;;
42084;SDS011;27746;52.228;20.890;2022-09-29T13:23:44;12.45;;;9.75;;
42084;SDS011;27746;52.228;20.890;2022-09-29T13:26:38;14.80;;;10.18;;
42084;SDS011;27746;52.228;20.890;2022-09-29T13:29:13;12.50;;;9.43;;
42084;SDS011;27746;52.228;20.890;2022-09-29T13:31:43;12.50;;;9.80;;
42084;SDS011;27746;52.228;20.890;2022-09-29T13:34:17;15.65;;;10.80;;
42084;SDS011;27746;52.228;20.890;2022-09-29T13:36:49;12.63;;;10.15;;
42084;SDS011;27746;52.228;20.890;2022-09-29T13:39:19;13.40;;;9.10;;
42084;SDS011;27746;52.228;20.890;2022-09-29T13:41:48;13.20;;;9.88;;
42084;SDS011;27746;52.228;20.890;2022-09-29T13:44:23;12.07;;;8.95;;
42084;SDS011;27746;52.228;20.890;2022-09-29T13:46:53;12.77;;;9.55;;
42084;SDS011;27746;52.228;20.890;2022-09-29T13:49:24;13.18;;;8.95;;
42084;SDS011;27746;52.228;20.890;2022-09-29T13:51:54;14.48;;;9.85;;
42084;SDS011;27746;52.228;20.890;2022-09-29T13:54:26;11.52;;;9.52;;
42084;SDS011;27746;52.228;20.890;2022-09-29T13:56:59;13.10;;;9.40;;
42084;SDS011;27746;52.228;20.890;2022-09-29T13:59:31;14.57;;;10.43;;
42084;SDS011;27746;52.228;20.890;2022-09-29T14:02:00;10.38;;;8.10;;
42084;SDS011;27746;52.228;20.890;2022-09-29T14:04:44;12.50;;;9.23;;
42084;SDS011;27746;52.228;20.890;2022-09-29T14:10:05;12.50;;;9.68;;
42084;SDS011;27746;52.228;20.890;2022-09-29T14:12:42;11.95;;;8.70;;
42084;SDS011;27746;52.228;20.890;2022-09-29T14:15:11;12.80;;;9.52;;
42084;SDS011;27746;52.228;20.890;2022-09-29T14:17:45;11.73;;;8.68;;
42084;SDS011;27746;52.228;20.890;2022-09-29T14:20:18;10.52;;;8.63;;
42084;SDS011;27746;52.228;20.890;2022-09-29T14:22:59;12.63;;;8.82;;
42084;SDS011;27746;52.228;20.890;2022-09-29T14:31:14;11.38;;;8.65;;
42084;SDS011;27746;52.228;20.890;2022-09-29T14:33:47;11.38;;;9.43;;
42084;SDS011;27746;52.228;20.890;2022-09-29T14:36:17;10.77;;;8.50;;
42084;SDS011;27746;52.228;20.890;2022-09-29T14:38:48;12.05;;;9.02;;
42084;SDS011;27746;52.228;20.890;2022-09-29T14:41:24;12.27;;;8.90;;
42084;SDS011;27746;52.228;20.890;2022-09-29T14:43:56;12.40;;;9.30;;
42084;SDS011;27746;52.228;20.890;2022-09-29T14:46:33;11.27;;;8.55;;
42084;SDS011;27746;52.228;20.890;2022-09-29T14:49:52;13.85;;;9.45;;
42084;SDS011;27746;52.228;20.890;2022-09-29T14:53:16;13.23;;;8.93;;
42084;SDS011;27746;52.228;20.890;2022-09-29T14:56:00;12.43;;;8.40;;
42084;SDS011;27746;52.228;20.890;2022-09-29T14:58:42;13.63;;;10.10;;
42084;SDS011;27746;52.228;20.890;2022-09-29T15:01:23;12.65;;;9.75;;
42084;SDS011;27746;52.228;20.890;2022-09-29T15:03:53;12.52;;;8.55;;